createdAt,value
2019-05-06T12:29:12.780Z,95510.03
2019-05-06T12:31:42.994Z,95506.56
2019-05-06T12:34:14.650Z,95509.65
2019-05-06T12:36:44.673Z,95508.77
2019-05-06T12:39:18.549Z,95511.55
2019-05-06T12:42:05.904Z,95509.69
2019-05-06T12:44:38.758Z,95509.46
2019-05-06T12:47:14.247Z,95514.56
2019-05-06T12:49:43.076Z,95517.23
2019-05-06T12:52:12.519Z,95515.98
2019-05-06T12:54:44.068Z,95522.30
2019-05-06T12:57:15.888Z,95518.18
2019-05-06T12:59:47.770Z,95526.46
2019-05-06T13:02:23.841Z,95522.24
2019-05-06T13:05:00.689Z,95520.94
2019-05-06T13:07:32.532Z,95525.27
2019-05-06T13:10:07.830Z,95527.11
2019-05-06T13:12:39.158Z,95524.44
2019-05-06T13:15:13.128Z,95522.66
2019-05-06T13:17:42.593Z,95523.55
2019-05-06T13:20:14.592Z,95521.92
2019-05-06T13:22:49.786Z,95519.66
2019-05-06T13:25:23.395Z,95525.62
2019-05-06T13:27:53.238Z,95522.20
2019-05-06T13:30:23.895Z,95525.02
2019-05-06T13:32:55.447Z,95523.44
2019-05-06T13:35:25.242Z,95523.86
2019-05-06T13:37:55.200Z,95513.88
2019-05-06T13:40:27.369Z,95520.13
2019-05-06T13:43:13.486Z,95521.16
2019-05-06T13:45:48.657Z,95519.03
2019-05-06T13:48:32.920Z,95517.16
2019-05-06T13:54:06.879Z,95511.69
2019-05-06T13:56:38.272Z,95516.68
2019-05-06T13:59:08.718Z,95518.19
2019-05-06T14:01:43.858Z,95517.19
2019-05-06T14:04:19.122Z,95527.09
2019-05-06T14:06:52.645Z,95525.28
2019-05-06T14:09:29.500Z,95527.37
2019-05-06T14:11:56.012Z,95525.64
2019-05-06T14:14:28.088Z,95527.52
2019-05-06T14:16:57.813Z,95525.14
2019-05-06T14:19:27.441Z,95525.63
2019-05-06T14:21:57.107Z,95529.47
2019-05-06T14:24:27.880Z,95530.69
2019-05-06T14:27:05.049Z,95527.14
2019-05-06T14:29:36.326Z,95526.82
2019-05-06T14:32:06.086Z,95531.17
2019-05-06T14:34:35.681Z,95528.02
2019-05-06T14:37:05.318Z,95523.42
2019-05-06T14:39:49.897Z,95524.67
2019-05-06T14:42:12.737Z,95523.75
2019-05-06T14:44:43.306Z,95527.00
2019-05-06T14:47:17.956Z,95525.84
2019-05-06T14:49:47.290Z,95530.78
2019-05-06T14:52:17.042Z,95529.61
2019-05-06T14:54:48.308Z,95527.11
2019-05-06T14:57:19.343Z,95528.98
2019-05-06T14:59:50.958Z,95525.03
2019-05-06T15:02:26.041Z,95527.37
2019-05-06T15:04:53.668Z,95527.01
2019-05-06T15:07:23.667Z,95526.13
2019-05-06T15:10:02.467Z,95528.00
2019-05-06T15:12:24.746Z,95530.45
2019-05-06T15:14:54.397Z,95530.55
2019-05-06T15:17:24.037Z,95528.14
2019-05-06T15:19:53.787Z,95530.73
2019-05-06T15:22:23.433Z,95534.48
2019-05-06T15:24:53.812Z,95540.52
2019-05-06T15:27:23.867Z,95537.99
2019-05-06T15:29:55.698Z,95541.33
2019-05-06T15:32:32.826Z,95543.11
2019-05-06T15:35:04.097Z,95547.38
2019-05-06T15:37:35.364Z,95546.55
2019-05-06T15:40:07.717Z,95546.02
2019-05-06T15:42:37.378Z,95545.95
2019-05-06T15:45:07.336Z,95547.65
2019-05-06T15:47:38.382Z,95548.67
2019-05-06T15:50:08.617Z,95544.28
2019-05-06T15:52:38.314Z,95541.93
2019-05-06T15:55:08.109Z,95547.32
2019-05-06T15:57:37.836Z,95542.87
2019-05-06T16:00:07.505Z,95539.50
2019-05-06T16:02:37.198Z,95546.70
2019-05-06T16:05:13.708Z,95547.02
2019-05-06T16:07:38.265Z,95541.22
2019-05-06T16:10:08.064Z,95539.67
2019-05-06T16:12:37.803Z,95547.29
2019-05-06T16:15:08.365Z,95548.49
2019-05-06T16:17:38.034Z,95545.25
2019-05-06T16:20:07.661Z,95548.94
2019-05-06T16:22:37.427Z,95548.12
2019-05-06T16:25:15.231Z,95548.58
2019-05-06T16:27:46.571Z,95543.12
2019-05-06T16:30:17.874Z,95550.83
2019-05-06T16:32:47.589Z,95547.39
2019-05-06T16:35:17.323Z,95545.52
2019-05-06T16:37:46.991Z,95548.41
2019-05-06T16:40:17.658Z,95554.57
2019-05-06T16:42:47.653Z,95547.32
2019-05-06T16:45:18.889Z,95545.04
2019-05-06T16:47:48.858Z,95551.17
2019-05-06T16:50:18.680Z,95555.16
2019-05-06T16:52:48.410Z,95548.82
2019-05-06T16:55:32.963Z,95551.53
2019-05-06T16:58:04.829Z,95552.55
2019-05-06T17:00:36.118Z,95557.62
2019-05-06T17:03:07.425Z,95551.78
2019-05-06T17:05:38.689Z,95557.36
2019-05-06T17:08:08.346Z,95560.11
2019-05-06T17:10:40.277Z,95557.39
2019-05-06T17:13:09.523Z,95563.16
2019-05-06T17:15:39.179Z,95564.91
2019-05-06T17:18:08.803Z,95564.79
2019-05-06T17:20:38.429Z,95568.23
2019-05-06T17:23:08.154Z,95570.50
2019-05-06T17:25:37.768Z,95570.03
2019-05-06T17:28:14.605Z,95571.39
2019-05-06T17:30:46.908Z,95577.84
2019-05-06T17:33:34.320Z,95576.23
2019-05-06T17:36:05.467Z,95576.26
2019-05-06T17:38:39.512Z,95576.69
2019-05-06T17:41:09.236Z,95583.45
2019-05-06T17:43:41.081Z,95585.52
2019-05-06T17:46:13.872Z,95588.97
2019-05-06T17:48:52.895Z,95594.88
2019-05-06T17:51:26.677Z,95588.61
2019-05-06T17:53:57.988Z,95591.69
2019-05-06T17:56:27.720Z,95588.99
2019-05-06T17:58:57.436Z,95593.14
2019-05-06T18:01:28.702Z,95589.02
2019-05-06T18:03:58.432Z,95592.91
2019-05-06T18:06:28.058Z,95590.08
2019-05-06T18:08:57.739Z,95595.98
2019-05-06T18:11:27.372Z,95596.36
2019-05-06T18:13:56.997Z,95607.61
2019-05-06T18:16:26.664Z,95610.68
2019-05-06T18:18:56.288Z,95612.95
2019-05-06T18:21:26.288Z,95610.11
2019-05-06T18:23:55.913Z,95616.84
2019-05-06T18:26:25.571Z,95624.42
2019-05-06T18:28:55.192Z,95633.16
2019-05-06T18:31:24.854Z,95633.48
2019-05-06T18:33:55.757Z,95637.75
2019-05-06T18:36:25.423Z,95636.21
2019-05-06T18:38:55.114Z,95641.05
2019-05-06T18:41:24.777Z,95641.64
2019-05-06T18:43:54.436Z,95645.30
2019-05-06T18:46:24.062Z,95651.56
2019-05-06T18:48:53.808Z,95651.42
2019-05-06T18:51:23.514Z,95655.09
2019-05-06T18:53:53.149Z,95659.81
2019-05-06T18:56:22.809Z,95661.25
2019-05-06T18:58:53.142Z,95654.84
2019-05-06T19:01:23.409Z,95664.89
2019-05-06T19:04:04.745Z,95667.48
2019-05-06T19:06:34.532Z,95665.11
2019-05-06T19:09:10.533Z,95668.39
2019-05-06T19:11:40.305Z,95672.05
2019-05-06T19:14:09.969Z,95678.31
2019-05-06T19:16:49.932Z,95678.53
2019-05-06T19:19:12.493Z,95679.13
2019-05-06T19:21:43.476Z,95686.33
2019-05-06T19:24:13.141Z,95688.34
2019-05-06T19:26:43.078Z,95681.95
2019-05-06T19:29:13.105Z,95693.66
2019-05-06T19:31:44.982Z,95692.36
2019-05-06T19:34:14.140Z,95699.31
2019-05-06T19:36:43.798Z,95703.48
2019-05-06T19:39:14.495Z,95707.38
2019-05-06T19:41:44.161Z,95707.97
2019-05-06T19:44:14.097Z,95707.28
2019-05-06T19:46:43.729Z,95710.20
2019-05-06T19:49:13.387Z,95712.77
2019-05-06T19:51:43.085Z,95710.30
2019-05-06T19:54:12.816Z,95713.58
2019-05-06T19:56:42.497Z,95708.14
2019-05-06T19:59:12.974Z,95709.66
2019-05-06T20:01:43.108Z,95706.36
2019-05-06T20:04:13.251Z,95704.34
2019-05-06T20:06:44.965Z,95706.48
2019-05-06T20:09:22.257Z,95702.80
2019-05-06T20:11:59.576Z,95710.25
2019-05-06T20:14:29.229Z,95704.22
2019-05-06T20:16:58.894Z,95702.59
2019-05-06T20:19:31.183Z,95702.13
2019-05-06T20:22:01.964Z,95703.42
2019-05-06T20:24:33.266Z,95699.16
2019-05-06T20:27:03.181Z,95701.38
2019-05-06T20:29:35.183Z,95701.13
2019-05-06T20:32:04.325Z,95696.78
2019-05-06T20:34:34.020Z,95700.08
2019-05-06T20:37:03.640Z,95697.02
2019-05-06T20:39:33.450Z,95703.52
2019-05-06T20:42:03.080Z,95693.71
2019-05-06T20:44:32.777Z,95693.01
2019-05-06T20:47:03.137Z,95686.05
2019-05-06T20:49:33.367Z,95688.37
2019-05-06T20:52:03.366Z,95687.06
2019-05-06T20:54:32.987Z,95686.27
2019-05-06T20:57:02.734Z,95686.73
2019-05-06T20:59:32.416Z,95685.53
2019-05-06T21:02:03.816Z,95683.30
2019-05-06T21:04:33.516Z,95680.83
2019-05-06T21:07:03.183Z,95686.36
2019-05-06T21:09:32.805Z,95683.67
2019-05-06T21:12:02.505Z,95684.47
2019-05-06T21:14:32.433Z,95683.67
2019-05-06T21:17:02.669Z,95680.48
2019-05-06T21:19:33.175Z,95683.33
2019-05-06T21:22:03.009Z,95675.75
2019-05-06T21:24:35.736Z,95685.09
2019-05-06T21:27:04.053Z,95683.89
2019-05-06T21:29:33.773Z,95686.36
2019-05-06T21:32:03.496Z,95679.99
2019-05-06T21:34:33.258Z,95681.16
2019-05-06T21:37:03.111Z,95675.05
2019-05-06T21:39:33.045Z,95675.66
2019-05-06T21:42:02.908Z,95672.54
2019-05-06T21:44:32.597Z,95673.03
2019-05-06T21:47:03.059Z,95669.94
2019-05-06T21:49:33.073Z,95673.50
2019-05-06T21:52:02.726Z,95667.09
2019-05-06T21:54:32.860Z,95667.69
2019-05-06T21:57:03.150Z,95666.05
2019-05-06T21:59:32.796Z,95663.92
2019-05-06T22:02:04.084Z,95664.85
2019-05-06T22:04:33.783Z,95660.34
2019-05-06T22:07:03.472Z,95662.94
2019-05-06T22:09:33.203Z,95662.94
2019-05-06T22:12:02.893Z,95655.39
2019-05-06T22:14:32.726Z,95650.67
2019-05-06T22:17:04.140Z,95657.16
2019-05-06T22:19:33.944Z,95652.06
2019-05-06T22:22:05.273Z,95652.65
2019-05-06T22:24:48.440Z,95650.05
2019-05-06T22:27:18.142Z,95649.22
2019-05-06T22:29:47.798Z,95649.22
2019-05-06T22:32:17.494Z,95650.27
2019-05-06T22:34:47.141Z,95644.24
2019-05-06T22:37:16.896Z,95638.00
2019-05-06T22:39:46.593Z,95632.57
2019-05-06T22:42:16.340Z,95637.02
2019-05-06T22:44:45.952Z,95630.28
2019-05-06T22:47:15.732Z,95632.54
2019-05-06T22:49:45.462Z,95635.02
2019-05-06T22:52:16.267Z,95635.48
2019-05-06T22:54:45.913Z,95632.30
2019-05-06T22:57:15.552Z,95633.22
2019-05-06T22:59:46.384Z,95629.08
2019-05-06T23:02:17.643Z,95635.57
2019-05-06T23:04:50.112Z,95635.20
2019-05-06T23:07:19.746Z,95627.30
2019-05-06T23:09:49.367Z,95627.38
2019-05-06T23:12:19.094Z,95629.39
2019-05-06T23:14:48.750Z,95632.67
2019-05-06T23:17:18.378Z,95634.77
2019-05-06T23:19:48.039Z,95628.16
2019-05-06T23:22:17.765Z,95626.24
2019-05-06T23:24:47.389Z,95623.48
2019-05-06T23:27:17.107Z,95623.36
2019-05-06T23:29:46.992Z,95618.85
2019-05-06T23:32:16.751Z,95624.84
2019-05-06T23:34:46.330Z,95631.20
2019-05-06T23:37:17.785Z,95624.77
2019-05-06T23:40:25.230Z,95629.57
2019-05-06T23:43:33.039Z,95627.77
2019-05-06T23:46:39.605Z,95626.89
2019-05-06T23:49:45.510Z,95620.83
2019-05-06T23:52:52.005Z,95618.69
2019-05-06T23:55:58.472Z,95618.73
2019-05-06T23:58:27.155Z,95620.67
